Time;durP1;ratioP1;P1;durP2;ratioP2;P2;SDS_P1;SDS_P2;PMS_P1;PMS_P2;Temp;Humidity;BMP_temperature;BMP_pressure;BME280_temperature;BME280_humidity;BME280_pressure;Samples;Min_cycle;Max_cycle;Signal;HPM_P1;HPM_P2
2022/01/19 00:00:16;;;;;;;57.23;25.40;;;;;;;;;;4962564;28;20490;-79
2022/01/19 00:02:43;;;;;;;60.30;26.57;;;;;;;;;;4962885;28;20858;-76
2022/01/19 00:05:11;;;;;;;62.83;24.30;;;;;;;;;;4959351;28;20480;-79
2022/01/19 00:07:39;;;;;;;51.43;24.00;;;;;;;;;;4962220;28;20819;-79
2022/01/19 00:10:09;;;;;;;56.93;24.93;;;;;;;;;;4958940;28;20534;-80
2022/01/19 00:12:36;;;;;;;56.07;26.60;;;;;;;;;;4962336;28;20955;-79
2022/01/19 00:15:03;;;;;;;72.57;29.90;;;;;;;;;;4962260;28;20576;-78
2022/01/19 00:17:29;;;;;;;56.20;24.47;;;;;;;;;;4962143;28;20514;-79
2022/01/19 00:19:55;;;;;;;59.90;25.07;;;;;;;;;;4960406;28;20488;-79
2022/01/19 00:22:21;;;;;;;66.70;25.90;;;;;;;;;;4962068;28;20459;-79
2022/01/19 00:24:49;;;;;;;60.40;25.33;;;;;;;;;;4968892;28;20545;-79
2022/01/19 00:27:15;;;;;;;56.47;27.43;;;;;;;;;;4981132;28;20460;-79
2022/01/19 00:29:41;;;;;;;58.87;26.80;;;;;;;;;;4974372;28;20997;-78
2022/01/19 00:32:08;;;;;;;50.97;24.00;;;;;;;;;;4957232;28;21003;-78
2022/01/19 00:34:34;;;;;;;52.90;24.20;;;;;;;;;;4958682;28;20491;-79
2022/01/19 00:37:00;;;;;;;51.60;23.03;;;;;;;;;;4957672;28;20456;-79
2022/01/19 00:39:31;;;;;;;53.90;25.67;;;;;;;;;;4960243;28;20534;-79
2022/01/19 00:41:58;;;;;;;55.80;24.87;;;;;;;;;;4959539;28;20467;-79
2022/01/19 00:44:24;;;;;;;52.27;23.93;;;;;;;;;;4958738;28;20484;-79
2022/01/19 00:46:51;;;;;;;70.90;29.20;;;;;;;;;;4961747;28;20460;-78
2022/01/19 00:49:17;;;;;;;71.57;30.83;;;;;;;;;;4960662;28;20472;-78
2022/01/19 00:51:43;;;;;;;57.30;26.60;;;;;;;;;;4959736;28;20472;-79
2022/01/19 00:54:09;;;;;;;69.03;28.77;;;;;;;;;;4960320;28;20496;-79
2022/01/19 00:56:36;;;;;;;56.53;26.50;;;;;;;;;;4959843;28;20460;-79
2022/01/19 00:59:03;;;;;;;55.60;25.30;;;;;;;;;;4959430;28;20498;-79
2022/01/19 01:01:30;;;;;;;64.33;26.17;;;;;;;;;;4960472;28;20454;-79
2022/01/19 01:03:56;;;;;;;59.60;25.47;;;;;;;;;;4958205;28;20509;-79
2022/01/19 01:06:22;;;;;;;61.10;25.50;;;;;;;;;;4958585;28;21009;-79
2022/01/19 01:08:48;;;;;;;49.07;24.40;;;;;;;;;;4956625;28;20487;-79
2022/01/19 01:11:17;;;;;;;42.93;21.57;;;;;;;;;;4960377;28;21276;-79
2022/01/19 01:16:34;;;;;;;41.73;21.83;;;;;;;;;;4959349;28;20503;-80
2022/01/19 01:19:01;;;;;;;44.40;20.07;;;;;;;;;;4961223;28;20548;-78
2022/01/19 01:21:27;;;;;;;49.67;20.73;;;;;;;;;;4959312;28;20780;-79
2022/01/19 01:23:53;;;;;;;49.97;21.77;;;;;;;;;;4954816;28;20911;-77
2022/01/19 01:26:19;;;;;;;46.13;20.27;;;;;;;;;;4960425;28;21036;-79
2022/01/19 01:28:46;;;;;;;48.27;22.40;;;;;;;;;;4957129;28;20460;-79
2022/01/19 01:31:12;;;;;;;40.77;17.23;;;;;;;;;;4961019;28;20539;-78
2022/01/19 01:33:41;;;;;;;47.43;21.00;;;;;;;;;;4963165;28;20492;-79
2022/01/19 01:36:07;;;;;;;52.80;19.13;;;;;;;;;;4966078;28;20487;-79
2022/01/19 01:38:33;;;;;;;43.53;19.63;;;;;;;;;;4967677;28;20455;-79
2022/01/19 01:41:00;;;;;;;48.43;20.30;;;;;;;;;;4966683;28;20561;-79
2022/01/19 01:43:26;;;;;;;36.47;17.50;;;;;;;;;;4965997;28;20478;-79
2022/01/19 01:45:59;;;;;;;40.70;18.00;;;;;;;;;;4964340;28;20483;-80
2022/01/19 01:48:25;;;;;;;50.03;18.10;;;;;;;;;;4963727;28;20471;-79
2022/01/19 01:53:37;;;;;;;46.20;17.13;;;;;;;;;;4963768;28;20561;-79
2022/01/19 01:56:05;;;;;;;45.30;16.33;;;;;;;;;;4966069;28;20463;-79
2022/01/19 01:58:33;;;;;;;35.17;15.33;;;;;;;;;;4963338;28;20459;-79
2022/01/19 02:00:59;;;;;;;28.20;14.70;;;;;;;;;;4962149;28;20487;-78
2022/01/19 02:03:26;;;;;;;29.17;14.73;;;;;;;;;;4965509;28;20902;-79
2022/01/19 02:08:42;;;;;;;32.23;13.53;;;;;;;;;;4964663;28;20996;-79
2022/01/19 02:11:35;;;;;;;39.37;14.80;;;;;;;;;;4966679;28;20472;-80
2022/01/19 02:22:50;;;;;;;39.23;14.90;;;;;;;;;;4965089;28;20451;-80
2022/01/19 02:25:16;;;;;;;37.80;14.50;;;;;;;;;;4965829;28;20479;-79
2022/01/19 02:41:26;;;;;;;27.77;15.27;;;;;;;;;;4983534;28;20469;-78
2022/01/19 02:43:52;;;;;;;34.13;16.60;;;;;;;;;;4984374;28;20476;-80
2022/01/19 02:49:16;;;;;;;40.23;16.50;;;;;;;;;;4922330;29;20468;-78
2022/01/19 02:51:44;;;;;;;40.80;17.67;;;;;;;;;;4954503;28;21012;-77
2022/01/19 02:54:11;;;;;;;27.80;15.33;;;;;;;;;;4962933;28;20483;-79
2022/01/19 02:56:39;;;;;;;37.53;17.00;;;;;;;;;;4960999;28;20993;-79
2022/01/19 02:59:14;;;;;;;40.07;16.80;;;;;;;;;;4961357;28;20489;-79
2022/01/19 03:09:54;;;;;;;46.47;15.50;;;;;;;;;;4961408;28;20479;-79
2022/01/19 03:12:20;;;;;;;31.20;16.50;;;;;;;;;;4959750;28;20475;-78
2022/01/19 03:14:46;;;;;;;39.87;18.70;;;;;;;;;;4962070;28;20488;-79
2022/01/19 03:17:13;;;;;;;50.20;19.90;;;;;;;;;;4959707;28;20472;-79
2022/01/19 03:19:39;;;;;;;53.33;25.17;;;;;;;;;;4960146;28;20480;-79
2022/01/19 03:22:05;;;;;;;59.33;26.23;;;;;;;;;;4959790;28;20471;-79
2022/01/19 03:24:38;;;;;;;52.90;27.27;;;;;;;;;;4960564;28;20476;-78
2022/01/19 03:27:04;;;;;;;66.40;29.67;;;;;;;;;;4963506;28;20443;-79
2022/01/19 03:29:31;;;;;;;58.97;26.17;;;;;;;;;;4960176;28;20525;-79
2022/01/19 03:31:57;;;;;;;70.10;30.77;;;;;;;;;;4962451;28;20451;-79
2022/01/19 03:34:23;;;;;;;49.00;25.97;;;;;;;;;;4961217;28;20492;-79
2022/01/19 03:36:50;;;;;;;51.43;25.10;;;;;;;;;;4963172;28;20550;-78
2022/01/19 03:39:16;;;;;;;55.20;25.63;;;;;;;;;;4961547;28;20485;-78
2022/01/19 03:41:43;;;;;;;53.40;25.33;;;;;;;;;;4959609;28;21017;-78
2022/01/19 03:44:10;;;;;;;59.10;25.43;;;;;;;;;;4959109;28;21010;-79
2022/01/19 03:46:43;;;;;;;49.63;22.03;;;;;;;;;;4961187;28;20827;-79
2022/01/19 03:49:12;;;;;;;48.77;21.90;;;;;;;;;;4962688;28;20455;-79
2022/01/19 03:51:38;;;;;;;47.40;23.13;;;;;;;;;;4961503;28;20459;-78
2022/01/19 03:54:05;;;;;;;40.73;21.27;;;;;;;;;;4961828;28;20488;-79
2022/01/19 03:56:31;;;;;;;49.17;21.70;;;;;;;;;;4957545;28;20448;-79
2022/01/19 03:58:59;;;;;;;44.90;23.00;;;;;;;;;;4960827;28;20547;-79
2022/01/19 04:01:25;;;;;;;48.10;21.57;;;;;;;;;;4962964;28;20464;-78
2022/01/19 04:04:12;;;;;;;50.57;21.97;;;;;;;;;;4961342;28;20834;-78
2022/01/19 04:06:55;;;;;;;50.17;23.90;;;;;;;;;;4963382;28;20554;-78
2022/01/19 04:09:21;;;;;;;51.60;22.73;;;;;;;;;;4961903;28;20475;-78
2022/01/19 04:11:48;;;;;;;44.23;22.53;;;;;;;;;;4962699;28;20958;-79
2022/01/19 04:14:25;;;;;;;50.17;23.40;;;;;;;;;;4962387;28;20559;-79
2022/01/19 04:16:52;;;;;;;49.20;25.80;;;;;;;;;;4962941;28;20471;-79
2022/01/19 04:19:28;;;;;;;47.80;23.60;;;;;;;;;;4962866;28;20479;-78
2022/01/19 04:21:55;;;;;;;52.93;23.53;;;;;;;;;;4962412;28;20460;-79
2022/01/19 04:24:22;;;;;;;52.13;23.40;;;;;;;;;;4962338;28;20484;-79
2022/01/19 04:29:30;;;;;;;44.70;23.23;;;;;;;;;;4962411;28;21218;-79
2022/01/19 04:31:56;;;;;;;49.97;23.93;;;;;;;;;;4961330;28;20459;-79
2022/01/19 04:34:22;;;;;;;46.00;23.30;;;;;;;;;;4961279;28;20472;-79
2022/01/19 04:37:21;;;;;;;49.53;23.00;;;;;;;;;;4962914;28;20461;-78
2022/01/19 04:45:48;;;;;;;47.73;22.83;;;;;;;;;;4961930;28;20498;-79
2022/01/19 04:48:19;;;;;;;53.17;22.17;;;;;;;;;;4963230;28;20440;-80
2022/01/19 05:01:48;;;;;;;50.63;23.13;;;;;;;;;;4960788;28;20450;-79
2022/01/19 05:04:27;;;;;;;51.93;25.20;;;;;;;;;;4961342;28;20480;-79
2022/01/19 05:07:06;;;;;;;44.57;22.50;;;;;;;;;;4960997;28;20448;-79
2022/01/19 05:09:55;;;;;;;50.30;23.27;;;;;;;;;;4959224;28;20483;-79
2022/01/19 05:15:14;;;;;;;51.40;24.17;;;;;;;;;;4940120;28;20467;-78
2022/01/19 05:17:42;;;;;;;52.83;25.37;;;;;;;;;;4961480;28;20471;-80
2022/01/19 05:20:09;;;;;;;51.30;23.47;;;;;;;;;;4960850;28;20483;-78
2022/01/19 05:22:36;;;;;;;54.47;26.87;;;;;;;;;;4961996;28;20479;-79
2022/01/19 05:25:03;;;;;;;51.73;24.13;;;;;;;;;;4960835;28;20541;-78
2022/01/19 05:27:30;;;;;;;49.17;24.03;;;;;;;;;;4962515;28;20476;-79
2022/01/19 05:29:56;;;;;;;53.50;25.00;;;;;;;;;;4960975;28;20464;-80
2022/01/19 05:32:23;;;;;;;52.63;24.80;;;;;;;;;;4956508;28;20445;-79
2022/01/19 05:34:51;;;;;;;55.73;23.50;;;;;;;;;;4962292;28;20558;-79
2022/01/19 05:37:17;;;;;;;62.73;26.90;;;;;;;;;;4958473;28;20471;-79
2022/01/19 05:39:43;;;;;;;54.90;25.83;;;;;;;;;;4961364;28;20501;-78
2022/01/19 05:42:14;;;;;;;54.67;24.57;;;;;;;;;;4962078;28;20509;-79
2022/01/19 05:44:40;;;;;;;53.43;22.90;;;;;;;;;;4963967;28;20570;-79
2022/01/19 05:47:07;;;;;;;61.93;24.27;;;;;;;;;;4963053;28;20452;-78
2022/01/19 05:49:33;;;;;;;49.90;23.50;;;;;;;;;;4960369;28;20488;-79
2022/01/19 05:52:00;;;;;;;53.03;26.20;;;;;;;;;;4963333;28;20447;-79
2022/01/19 05:54:27;;;;;;;50.13;24.73;;;;;;;;;;4960717;28;20834;-79
2022/01/19 05:56:53;;;;;;;55.10;23.07;;;;;;;;;;4964478;28;20525;-79
2022/01/19 05:59:22;;;;;;;58.13;24.70;;;;;;;;;;4962785;28;20472;-79
2022/01/19 06:01:48;;;;;;;54.57;25.43;;;;;;;;;;4964546;28;20997;-79
2022/01/19 06:04:14;;;;;;;56.63;26.17;;;;;;;;;;4962632;28;20468;-79
2022/01/19 06:06:40;;;;;;;72.90;25.40;;;;;;;;;;4960567;28;20486;-78
2022/01/19 06:09:10;;;;;;;50.23;23.63;;;;;;;;;;4960158;28;20463;-79
2022/01/19 06:11:36;;;;;;;59.23;26.37;;;;;;;;;;4961957;28;20827;-80
2022/01/19 06:14:02;;;;;;;49.87;24.93;;;;;;;;;;4963661;28;20840;-80
2022/01/19 06:16:29;;;;;;;64.50;28.40;;;;;;;;;;4963700;28;20444;-80
2022/01/19 06:18:55;;;;;;;55.40;24.53;;;;;;;;;;4965128;28;20527;-80
2022/01/19 06:21:21;;;;;;;57.47;25.13;;;;;;;;;;4965522;28;20483;-80
2022/01/19 06:23:47;;;;;;;53.50;26.50;;;;;;;;;;4965802;28;20502;-80
2022/01/19 06:26:15;;;;;;;54.97;25.23;;;;;;;;;;4964993;28;20484;-80
2022/01/19 06:28:41;;;;;;;52.73;27.70;;;;;;;;;;4965102;28;20456;-80
2022/01/19 06:31:07;;;;;;;63.30;28.70;;;;;;;;;;4965306;28;20480;-80
2022/01/19 06:33:34;;;;;;;64.27;29.30;;;;;;;;;;4964355;28;20474;-78
2022/01/19 06:36:00;;;;;;;61.50;28.50;;;;;;;;;;4960707;28;20537;-79
2022/01/19 06:38:26;;;;;;;68.57;29.97;;;;;;;;;;4962347;28;20460;-78
2022/01/19 06:40:52;;;;;;;83.60;31.90;;;;;;;;;;4961934;28;20516;-78
2022/01/19 06:43:20;;;;;;;70.97;31.33;;;;;;;;;;4962059;28;20832;-78
2022/01/19 06:45:46;;;;;;;67.33;31.23;;;;;;;;;;4962035;28;20480;-78
2022/01/19 06:48:12;;;;;;;70.17;30.67;;;;;;;;;;4962572;28;20452;-79
2022/01/19 06:50:39;;;;;;;73.80;32.43;;;;;;;;;;4962243;28;20522;-79
2022/01/19 06:53:05;;;;;;;76.97;36.60;;;;;;;;;;4962193;28;21022;-79
2022/01/19 06:55:31;;;;;;;80.90;33.90;;;;;;;;;;4962453;28;20893;-79
2022/01/19 06:57:58;;;;;;;80.00;35.80;;;;;;;;;;4961252;28;20472;-78
2022/01/19 07:00:25;;;;;;;78.30;37.47;;;;;;;;;;4959664;28;20482;-78
2022/01/19 07:02:53;;;;;;;78.83;39.40;;;;;;;;;;4990898;23;20569;-87
2022/01/19 07:05:19;;;;;;;86.93;38.80;;;;;;;;;;4974679;28;20476;-86
2022/01/19 07:07:45;;;;;;;76.97;38.10;;;;;;;;;;4969119;28;20464;-87
2022/01/19 07:10:12;;;;;;;84.10;38.33;;;;;;;;;;4973440;28;20855;-87
2022/01/19 07:12:38;;;;;;;89.03;39.93;;;;;;;;;;4967425;28;20992;-86
2022/01/19 07:15:05;;;;;;;89.77;41.20;;;;;;;;;;4966626;28;20476;-85
2022/01/19 07:17:32;;;;;;;96.77;42.80;;;;;;;;;;4973696;28;20964;-84
2022/01/19 07:19:59;;;;;;;89.07;41.20;;;;;;;;;;4963931;28;20484;-87
2022/01/19 07:22:25;;;;;;;95.70;46.00;;;;;;;;;;4967060;28;20479;-86
2022/01/19 07:24:52;;;;;;;88.93;43.37;;;;;;;;;;4970729;28;20467;-87
2022/01/19 07:27:18;;;;;;;92.43;45.73;;;;;;;;;;4967624;28;20530;-87
2022/01/19 07:29:44;;;;;;;89.90;45.37;;;;;;;;;;4962845;28;20483;-86
2022/01/19 07:32:12;;;;;;;88.47;43.03;;;;;;;;;;4965476;28;20488;-84
2022/01/19 07:34:39;;;;;;;84.23;42.90;;;;;;;;;;4967072;28;20479;-86
2022/01/19 07:37:06;;;;;;;94.13;40.30;;;;;;;;;;4967063;28;20538;-87
2022/01/19 07:39:32;;;;;;;90.03;43.20;;;;;;;;;;4965315;28;20475;-87
2022/01/19 07:41:59;;;;;;;87.37;44.47;;;;;;;;;;4972543;28;20487;-87
2022/01/19 07:44:25;;;;;;;86.23;43.10;;;;;;;;;;4965404;28;20471;-87
2022/01/19 07:46:52;;;;;;;92.60;44.93;;;;;;;;;;4966643;28;20444;-86
2022/01/19 07:49:18;;;;;;;96.77;43.33;;;;;;;;;;4958553;28;20479;-87
2022/01/19 07:51:46;;;;;;;77.57;39.97;;;;;;;;;;4968523;28;20926;-84
2022/01/19 07:54:12;;;;;;;88.43;41.33;;;;;;;;;;4968540;28;20483;-85
2022/01/19 07:56:39;;;;;;;80.87;39.70;;;;;;;;;;4969944;28;20450;-87
2022/01/19 07:59:05;;;;;;;80.70;41.60;;;;;;;;;;4968713;28;20792;-84
2022/01/19 08:01:31;;;;;;;92.07;43.63;;;;;;;;;;4966466;28;20491;-85
2022/01/19 08:03:58;;;;;;;92.90;41.70;;;;;;;;;;4965550;28;20472;-87
2022/01/19 08:06:24;;;;;;;87.03;40.13;;;;;;;;;;4963493;28;20502;-85
2022/01/19 08:08:52;;;;;;;83.40;40.13;;;;;;;;;;4965617;28;20457;-83
2022/01/19 08:11:18;;;;;;;93.57;43.20;;;;;;;;;;4964588;28;20980;-86
2022/01/19 08:13:44;;;;;;;86.53;41.37;;;;;;;;;;4966412;28;20836;-85
2022/01/19 08:16:11;;;;;;;78.13;39.13;;;;;;;;;;4968640;28;20487;-84
2022/01/19 08:18:37;;;;;;;76.03;37.67;;;;;;;;;;4965808;28;20511;-85
2022/01/19 08:21:03;;;;;;;86.03;42.27;;;;;;;;;;4966852;28;21006;-87
2022/01/19 08:23:30;;;;;;;82.73;39.40;;;;;;;;;;4967090;28;20467;-86
2022/01/19 08:25:57;;;;;;;71.37;37.97;;;;;;;;;;4970657;28;20886;-86
2022/01/19 08:28:23;;;;;;;73.67;36.23;;;;;;;;;;4964907;28;20533;-86
2022/01/19 08:30:50;;;;;;;80.07;38.77;;;;;;;;;;4966484;28;20479;-85
2022/01/19 08:33:16;;;;;;;74.53;36.17;;;;;;;;;;4963369;28;20468;-85
2022/01/19 08:35:42;;;;;;;74.27;36.70;;;;;;;;;;4964976;28;20543;-84
2022/01/19 08:38:08;;;;;;;73.10;37.53;;;;;;;;;;4970105;28;20448;-85
2022/01/19 08:40:37;;;;;;;75.37;39.33;;;;;;;;;;4964504;28;20488;-86
2022/01/19 08:43:04;;;;;;;72.33;37.40;;;;;;;;;;4964616;28;20993;-86
2022/01/19 08:45:31;;;;;;;69.93;38.27;;;;;;;;;;4961709;28;20484;-86
2022/01/19 08:47:58;;;;;;;76.80;38.40;;;;;;;;;;4963032;28;20490;-85
2022/01/19 08:50:24;;;;;;;62.20;35.90;;;;;;;;;;4964430;28;20914;-86
2022/01/19 08:52:51;;;;;;;62.20;37.63;;;;;;;;;;4965831;28;20472;-85
2022/01/19 08:55:17;;;;;;;67.97;38.07;;;;;;;;;;4970007;28;20850;-87
2022/01/19 08:57:46;;;;;;;76.73;38.50;;;;;;;;;;4975476;28;20771;-86
2022/01/19 09:00:15;;;;;;;63.50;36.27;;;;;;;;;;4961774;28;20488;-88
2022/01/19 09:02:42;;;;;;;78.90;41.33;;;;;;;;;;4963948;28;20534;-87
2022/01/19 09:05:09;;;;;;;67.33;37.30;;;;;;;;;;4965275;28;20475;-87
2022/01/19 09:07:35;;;;;;;68.57;36.80;;;;;;;;;;4964348;28;20459;-87
2022/01/19 09:10:02;;;;;;;66.17;36.97;;;;;;;;;;4969078;28;21020;-85
2022/01/19 09:12:28;;;;;;;62.80;33.23;;;;;;;;;;4969147;28;20993;-84
2022/01/19 09:14:54;;;;;;;63.87;36.90;;;;;;;;;;4971566;28;20567;-84
2022/01/19 09:17:22;;;;;;;59.07;34.60;;;;;;;;;;4966880;28;20463;-85
2022/01/19 09:19:48;;;;;;;62.10;35.20;;;;;;;;;;4963731;28;20476;-84
2022/01/19 09:22:15;;;;;;;69.30;37.20;;;;;;;;;;4969437;28;20492;-84
2022/01/19 09:24:42;;;;;;;69.73;37.33;;;;;;;;;;4967908;28;21149;-86
2022/01/19 09:27:09;;;;;;;67.70;36.27;;;;;;;;;;4965641;28;20444;-84
2022/01/19 09:29:38;;;;;;;70.80;35.60;;;;;;;;;;4970840;28;21010;-85
2022/01/19 09:32:07;;;;;;;64.73;37.67;;;;;;;;;;4965383;28;20502;-84
2022/01/19 09:34:35;;;;;;;67.93;36.07;;;;;;;;;;4969601;28;20482;-84
2022/01/19 09:37:01;;;;;;;64.70;35.50;;;;;;;;;;4966065;28;20463;-84
2022/01/19 09:39:28;;;;;;;65.37;35.40;;;;;;;;;;4968265;28;20527;-84
2022/01/19 09:41:55;;;;;;;70.83;36.23;;;;;;;;;;4966738;28;20998;-84
2022/01/19 09:44:22;;;;;;;73.47;39.17;;;;;;;;;;4964961;28;20472;-84
2022/01/19 09:46:49;;;;;;;62.57;35.90;;;;;;;;;;4968737;28;20456;-84
2022/01/19 09:49:17;;;;;;;59.20;35.70;;;;;;;;;;4970957;28;20471;-84
2022/01/19 09:51:46;;;;;;;60.80;33.47;;;;;;;;;;4964701;28;20483;-85
2022/01/19 09:54:13;;;;;;;63.97;35.80;;;;;;;;;;4968925;28;20486;-85
2022/01/19 09:56:41;;;;;;;54.20;31.50;;;;;;;;;;4969048;28;20447;-85
2022/01/19 09:59:07;;;;;;;51.43;32.80;;;;;;;;;;4969391;28;20459;-86
2022/01/19 10:01:34;;;;;;;49.30;32.90;;;;;;;;;;4967541;28;20542;-87
2022/01/19 10:04:15;;;;;;;56.03;35.93;;;;;;;;;;4967420;28;20518;-85
2022/01/19 10:06:42;;;;;;;59.93;36.63;;;;;;;;;;4967844;28;20451;-85
2022/01/19 10:09:09;;;;;;;55.57;33.83;;;;;;;;;;4972309;28;20459;-84
2022/01/19 10:17:01;;;;;;;56.00;35.40;;;;;;;;;;4968506;28;23530;-85
2022/01/19 10:19:29;;;;;;;57.70;36.87;;;;;;;;;;4968048;28;20503;-85
2022/01/19 10:21:56;;;;;;;58.80;38.67;;;;;;;;;;4971755;28;20487;-85
2022/01/19 10:24:34;;;;;;;59.07;36.80;;;;;;;;;;4969048;28;20572;-84
2022/01/19 10:27:19;;;;;;;53.83;34.40;;;;;;;;;;4973884;28;20510;-84
2022/01/19 10:29:45;;;;;;;66.57;38.43;;;;;;;;;;4966394;28;20867;-83
2022/01/19 10:32:11;;;;;;;59.37;37.60;;;;;;;;;;4966434;28;20481;-84
2022/01/19 10:34:38;;;;;;;63.53;37.93;;;;;;;;;;4972897;28;20810;-85
2022/01/19 10:37:05;;;;;;;66.50;36.63;;;;;;;;;;4972337;28;20458;-84
2022/01/19 10:39:41;;;;;;;61.17;36.67;;;;;;;;;;4970972;28;21063;-84
2022/01/19 10:42:08;;;;;;;65.13;35.60;;;;;;;;;;4971704;28;20488;-84
2022/01/19 10:44:36;;;;;;;58.00;34.30;;;;;;;;;;4973477;28;20506;-85
2022/01/19 10:47:02;;;;;;;61.93;37.00;;;;;;;;;;4973440;28;20513;-85
2022/01/19 10:49:28;;;;;;;58.73;32.73;;;;;;;;;;4966283;28;20471;-84
2022/01/19 10:51:58;;;;;;;57.20;31.77;;;;;;;;;;4973096;28;20811;-84
2022/01/19 10:54:26;;;;;;;58.83;35.90;;;;;;;;;;4969579;28;22852;-85
2022/01/19 10:56:57;;;;;;;63.50;33.27;;;;;;;;;;4972067;28;20499;-82
2022/01/19 10:59:26;;;;;;;62.20;33.40;;;;;;;;;;4967736;28;20491;-82
2022/01/19 11:01:53;;;;;;;60.67;33.83;;;;;;;;;;4970104;28;20490;-83
2022/01/19 11:04:24;;;;;;;65.53;32.30;;;;;;;;;;4968110;28;20468;-82
2022/01/19 11:06:51;;;;;;;58.70;34.60;;;;;;;;;;4970027;28;20460;-84
2022/01/19 11:09:23;;;;;;;62.23;33.30;;;;;;;;;;4972887;28;20469;-82
2022/01/19 11:11:49;;;;;;;63.77;34.90;;;;;;;;;;4968415;28;20482;-84
2022/01/19 11:14:17;;;;;;;67.40;33.80;;;;;;;;;;4970479;28;20505;-84
2022/01/19 11:16:43;;;;;;;61.73;33.87;;;;;;;;;;4970146;28;21016;-83
2022/01/19 11:19:10;;;;;;;64.20;34.27;;;;;;;;;;4972292;28;20455;-84
2022/01/19 11:21:41;;;;;;;61.90;35.57;;;;;;;;;;4964590;28;20488;-84
2022/01/19 11:24:11;;;;;;;70.03;37.33;;;;;;;;;;4966113;28;20507;-84
2022/01/19 11:26:38;;;;;;;62.53;35.57;;;;;;;;;;4972251;28;20924;-84
2022/01/19 11:29:15;;;;;;;62.20;34.60;;;;;;;;;;4968069;28;20467;-84
2022/01/19 11:31:43;;;;;;;61.93;35.50;;;;;;;;;;4972773;28;20447;-86
2022/01/19 11:34:09;;;;;;;63.73;36.13;;;;;;;;;;4968647;28;20925;-85
2022/01/19 11:36:36;;;;;;;59.57;33.77;;;;;;;;;;4969168;28;20470;-85
2022/01/19 11:39:07;;;;;;;57.63;33.50;;;;;;;;;;4973398;28;20447;-87
2022/01/19 11:41:41;;;;;;;63.73;35.07;;;;;;;;;;4974020;28;20455;-83
2022/01/19 11:44:08;;;;;;;58.23;33.23;;;;;;;;;;4968307;28;20473;-84
2022/01/19 11:46:39;;;;;;;62.90;34.27;;;;;;;;;;4967998;28;20467;-85
2022/01/19 11:49:07;;;;;;;67.87;37.03;;;;;;;;;;4965739;28;20456;-84
2022/01/19 11:51:35;;;;;;;69.53;35.60;;;;;;;;;;4964160;28;20491;-85
2022/01/19 11:54:03;;;;;;;69.00;37.00;;;;;;;;;;4970435;28;20609;-84
2022/01/19 11:56:30;;;;;;;61.27;34.40;;;;;;;;;;4967427;28;20463;-84
2022/01/19 11:59:05;;;;;;;63.07;35.00;;;;;;;;;;4971022;28;20478;-83
2022/01/19 12:01:31;;;;;;;68.23;35.90;;;;;;;;;;4967798;28;20454;-84
2022/01/19 12:04:13;;;;;;;63.90;35.57;;;;;;;;;;4962517;28;20492;-83
2022/01/19 12:06:42;;;;;;;69.87;39.13;;;;;;;;;;4975013;28;20452;-83
2022/01/19 12:09:09;;;;;;;70.77;35.57;;;;;;;;;;4967829;28;20540;-84
2022/01/19 12:11:37;;;;;;;63.70;36.23;;;;;;;;;;4969746;28;20456;-84
2022/01/19 12:14:11;;;;;;;64.80;36.87;;;;;;;;;;4968121;28;20468;-85
2022/01/19 12:19:20;;;;;;;70.83;35.80;;;;;;;;;;4966361;28;20456;-84
2022/01/19 12:21:50;;;;;;;70.70;35.50;;;;;;;;;;4972662;28;20487;-82
2022/01/19 12:24:25;;;;;;;81.20;39.33;;;;;;;;;;4970334;28;21100;-84
2022/01/19 12:26:55;;;;;;;72.27;37.77;;;;;;;;;;4974829;28;20453;-83
2022/01/19 12:29:42;;;;;;;77.43;39.70;;;;;;;;;;4969086;28;20477;-85
2022/01/19 12:32:09;;;;;;;76.23;37.10;;;;;;;;;;4969987;28;20486;-84
2022/01/19 12:34:42;;;;;;;70.33;38.17;;;;;;;;;;4969548;28;20472;-85
2022/01/19 12:37:11;;;;;;;74.67;39.57;;;;;;;;;;4970683;28;20455;-85
2022/01/19 12:39:38;;;;;;;70.67;39.00;;;;;;;;;;4966528;28;20484;-85
2022/01/19 12:42:07;;;;;;;67.23;36.07;;;;;;;;;;4969785;28;20495;-84
2022/01/19 12:44:52;;;;;;;73.80;40.47;;;;;;;;;;4964737;28;20884;-84
2022/01/19 12:47:36;;;;;;;81.53;41.17;;;;;;;;;;4954698;28;20456;-85
2022/01/19 12:50:18;;;;;;;76.57;39.50;;;;;;;;;;4972660;28;20486;-85
2022/01/19 12:52:46;;;;;;;77.53;39.67;;;;;;;;;;4972632;28;20498;-84
2022/01/19 12:55:14;;;;;;;75.73;40.23;;;;;;;;;;4969154;28;20479;-86
2022/01/19 12:57:40;;;;;;;69.30;38.30;;;;;;;;;;4969282;28;20539;-84
2022/01/19 13:00:08;;;;;;;75.37;39.43;;;;;;;;;;4968049;28;20479;-85
2022/01/19 13:02:35;;;;;;;81.53;40.00;;;;;;;;;;4964344;28;20524;-83
2022/01/19 13:05:04;;;;;;;82.70;42.80;;;;;;;;;;5027385;23;21103;-77
2022/01/19 13:07:31;;;;;;;77.73;38.83;;;;;;;;;;5040112;28;20452;-80
2022/01/19 13:10:07;;;;;;;75.40;42.90;;;;;;;;;;5039251;28;20518;-78
2022/01/19 13:12:35;;;;;;;73.53;40.57;;;;;;;;;;5042145;28;20459;-80
2022/01/19 13:15:02;;;;;;;74.77;39.00;;;;;;;;;;5053208;28;21024;-79
2022/01/19 13:17:39;;;;;;;94.20;46.00;;;;;;;;;;5058613;28;20455;-78
2022/01/19 13:20:11;;;;;;;72.20;39.80;;;;;;;;;;5056768;28;21087;-78
2022/01/19 13:22:44;;;;;;;79.33;42.93;;;;;;;;;;5057887;28;20855;-78
2022/01/19 13:25:16;;;;;;;77.33;43.40;;;;;;;;;;5057672;28;20490;-78
2022/01/19 13:27:43;;;;;;;83.33;43.53;;;;;;;;;;5057316;28;20919;-77
2022/01/19 13:30:11;;;;;;;71.00;39.50;;;;;;;;;;5059681;28;20566;-79
2022/01/19 13:32:38;;;;;;;84.10;43.67;;;;;;;;;;5061606;28;20954;-79
2022/01/19 13:35:06;;;;;;;88.57;45.60;;;;;;;;;;5061157;28;20471;-78
2022/01/19 13:37:33;;;;;;;79.50;42.07;;;;;;;;;;5060327;28;20513;-78
2022/01/19 13:40:00;;;;;;;77.40;44.50;;;;;;;;;;5063183;28;20525;-79
2022/01/19 13:42:39;;;;;;;81.03;42.73;;;;;;;;;;5063264;28;20540;-79
2022/01/19 13:45:11;;;;;;;72.57;43.00;;;;;;;;;;5059688;28;21181;-79
2022/01/19 13:47:56;;;;;;;83.23;42.53;;;;;;;;;;5061084;28;20458;-78
2022/01/19 13:50:23;;;;;;;83.17;43.03;;;;;;;;;;5060214;28;20474;-78
2022/01/19 13:52:50;;;;;;;82.50;40.87;;;;;;;;;;5060437;28;20863;-78
2022/01/19 13:55:17;;;;;;;82.60;43.90;;;;;;;;;;5062590;28;20485;-78
2022/01/19 13:57:45;;;;;;;96.63;42.53;;;;;;;;;;5062621;28;20456;-79
2022/01/19 14:00:12;;;;;;;83.47;42.90;;;;;;;;;;5060399;28;20487;-78
2022/01/19 14:02:38;;;;;;;82.67;40.33;;;;;;;;;;5061557;28;20491;-78
2022/01/19 14:05:05;;;;;;;85.37;41.67;;;;;;;;;;5057183;28;21030;-79
2022/01/19 14:07:31;;;;;;;79.03;45.10;;;;;;;;;;5060365;28;20459;-79
2022/01/19 14:10:04;;;;;;;85.50;43.70;;;;;;;;;;5057018;28;20479;-79
2022/01/19 14:12:31;;;;;;;90.80;44.23;;;;;;;;;;5056959;28;20451;-78
2022/01/19 14:15:00;;;;;;;82.00;41.47;;;;;;;;;;5058357;28;21305;-77
2022/01/19 14:17:28;;;;;;;82.70;42.27;;;;;;;;;;5060169;28;20440;-79
2022/01/19 14:19:55;;;;;;;83.57;42.93;;;;;;;;;;5061126;28;21037;-78
2022/01/19 14:22:25;;;;;;;94.17;44.40;;;;;;;;;;5061467;28;20857;-79
2022/01/19 14:25:01;;;;;;;92.90;44.87;;;;;;;;;;5058701;28;20485;-78
2022/01/19 14:27:35;;;;;;;89.17;45.13;;;;;;;;;;5057986;28;20466;-78
2022/01/19 14:30:05;;;;;;;103.90;47.40;;;;;;;;;;5051381;28;21065;-78
2022/01/19 14:32:36;;;;;;;90.83;45.93;;;;;;;;;;5058827;28;20459;-78
2022/01/19 14:35:02;;;;;;;90.53;44.10;;;;;;;;;;5056638;28;20491;-79
2022/01/19 14:37:29;;;;;;;90.20;44.17;;;;;;;;;;5058953;28;20448;-78
2022/01/19 14:39:56;;;;;;;95.80;46.67;;;;;;;;;;5059725;28;20539;-78
2022/01/19 14:42:25;;;;;;;89.90;44.30;;;;;;;;;;5057081;28;20513;-78
2022/01/19 14:45:02;;;;;;;97.60;47.10;;;;;;;;;;5058429;28;20536;-79
2022/01/19 14:47:37;;;;;;;88.30;42.57;;;;;;;;;;5061255;28;20447;-78
2022/01/19 14:50:16;;;;;;;94.20;44.53;;;;;;;;;;5057434;28;20517;-79
2022/01/19 14:52:42;;;;;;;83.97;41.40;;;;;;;;;;5058903;28;20482;-78
2022/01/19 14:55:09;;;;;;;96.63;45.60;;;;;;;;;;5057168;28;20566;-78
2022/01/19 14:57:35;;;;;;;92.97;45.83;;;;;;;;;;5057259;28;20542;-78
2022/01/19 15:00:03;;;;;;;87.70;44.97;;;;;;;;;;5056042;28;21013;-78
2022/01/19 15:02:30;;;;;;;94.07;45.87;;;;;;;;;;5059704;28;20846;-78
2022/01/19 15:04:56;;;;;;;91.23;42.50;;;;;;;;;;5055349;28;20483;-78
2022/01/19 15:07:23;;;;;;;98.10;45.80;;;;;;;;;;5058277;28;20444;-79
2022/01/19 15:09:49;;;;;;;89.33;47.20;;;;;;;;;;5055677;28;20525;-78
2022/01/19 15:12:15;;;;;;;92.80;48.30;;;;;;;;;;5054665;28;20456;-78
2022/01/19 15:14:42;;;;;;;94.07;47.27;;;;;;;;;;5055106;28;20496;-78
2022/01/19 15:17:10;;;;;;;96.57;48.80;;;;;;;;;;5058868;28;20460;-79
2022/01/19 15:19:37;;;;;;;95.63;47.77;;;;;;;;;;5055437;28;20528;-78
2022/01/19 15:22:04;;;;;;;101.47;47.07;;;;;;;;;;5058606;28;20518;-78
2022/01/19 15:24:30;;;;;;;101.07;44.93;;;;;;;;;;5057060;28;20479;-78
2022/01/19 15:26:57;;;;;;;84.00;42.43;;;;;;;;;;5053536;28;20455;-78
2022/01/19 15:29:23;;;;;;;95.60;46.30;;;;;;;;;;5052847;28;20494;-78
2022/01/19 15:31:50;;;;;;;95.23;46.80;;;;;;;;;;5057463;28;20499;-79
2022/01/19 15:34:16;;;;;;;92.90;47.20;;;;;;;;;;5054868;28;20534;-78